sensor_id;sensor_type;location;lat;lon;timestamp;P1;durP1;ratioP1;P2;durP2;ratioP2
39082;SDS011;24834;44.444;26.098;2023-03-23T04:06:22;60.25;;;47.25;;
39082;SDS011;24834;44.444;26.098;2023-03-23T04:12:26;57.00;;;46.25;;
39082;SDS011;24834;44.444;26.098;2023-03-23T04:18:29;66.50;;;55.75;;
39082;SDS011;24834;44.444;26.098;2023-03-23T12:56:52;42.00;;;38.00;;
39082;SDS011;24834;44.444;26.098;2023-03-23T13:15:40;51.67;;;43.00;;
39082;SDS011;24834;44.444;26.098;2023-03-23T13:22:11;47.33;;;40.00;;
39082;SDS011;24834;44.444;26.098;2023-03-23T13:28:24;54.33;;;41.33;;
39082;SDS011;24834;44.444;26.098;2023-03-23T13:34:34;41.00;;;37.67;;
39082;SDS011;24834;44.444;26.098;2023-03-23T13:40:40;46.00;;;39.00;;
39082;SDS011;24834;44.444;26.098;2023-03-23T13:46:56;50.00;;;41.67;;
39082;SDS011;24834;44.444;26.098;2023-03-23T13:59:49;47.00;;;39.00;;
39082;SDS011;24834;44.444;26.098;2023-03-23T14:12:01;51.67;;;42.33;;
39082;SDS011;24834;44.444;26.098;2023-03-23T14:18:14;47.33;;;39.33;;
39082;SDS011;24834;44.444;26.098;2023-03-23T14:24:20;50.00;;;40.00;;
39082;SDS011;24834;44.444;26.098;2023-03-23T14:30:35;49.00;;;38.00;;
39082;SDS011;24834;44.444;26.098;2023-03-23T14:36:38;49.00;;;40.33;;
39082;SDS011;24834;44.444;26.098;2023-03-23T14:42:42;42.67;;;37.00;;
39082;SDS011;24834;44.444;26.098;2023-03-23T14:48:45;47.00;;;40.67;;
39082;SDS011;24834;44.444;26.098;2023-03-23T14:54:49;44.67;;;39.00;;
39082;SDS011;24834;44.444;26.098;2023-03-23T15:07:03;51.33;;;43.67;;
39082;SDS011;24834;44.444;26.098;2023-03-23T15:13:09;52.50;;;41.00;;
39082;SDS011;24834;44.444;26.098;2023-03-23T15:19:16;52.67;;;43.67;;
39082;SDS011;24834;44.444;26.098;2023-03-23T15:25:29;54.00;;;42.33;;
39082;SDS011;24834;44.444;26.098;2023-03-23T15:31:33;51.67;;;43.00;;
39082;SDS011;24834;44.444;26.098;2023-03-23T15:37:48;55.00;;;46.25;;
39082;SDS011;24834;44.444;26.098;2023-03-23T15:44:12;51.50;;;42.25;;
39082;SDS011;24834;44.444;26.098;2023-03-23T15:50:33;53.50;;;44.00;;
39082;SDS011;24834;44.444;26.098;2023-03-23T15:56:37;56.75;;;46.25;;
39082;SDS011;24834;44.444;26.098;2023-03-23T16:02:39;57.50;;;48.75;;
39082;SDS011;24834;44.444;26.098;2023-03-23T16:08:43;63.00;;;50.25;;
39082;SDS011;24834;44.444;26.098;2023-03-23T16:14:55;57.50;;;46.50;;
39082;SDS011;24834;44.444;26.098;2023-03-23T16:20:57;61.75;;;48.50;;
39082;SDS011;24834;44.444;26.098;2023-03-23T16:27:00;57.25;;;46.50;;
39082;SDS011;24834;44.444;26.098;2023-03-23T16:33:05;65.25;;;53.00;;
39082;SDS011;24834;44.444;26.098;2023-03-23T16:39:09;56.00;;;46.25;;
39082;SDS011;24834;44.444;26.098;2023-03-23T16:45:13;60.75;;;49.50;;
39082;SDS011;24834;44.444;26.098;2023-03-23T16:51:17;60.00;;;48.25;;
39082;SDS011;24834;44.444;26.098;2023-03-23T16:57:21;62.50;;;50.50;;
39082;SDS011;24834;44.444;26.098;2023-03-23T17:03:26;67.00;;;54.00;;
39082;SDS011;24834;44.444;26.098;2023-03-23T17:09:30;60.25;;;50.75;;
39082;SDS011;24834;44.444;26.098;2023-03-23T17:15:34;64.25;;;51.75;;
39082;SDS011;24834;44.444;26.098;2023-03-23T17:21:38;62.75;;;51.00;;
39082;SDS011;24834;44.444;26.098;2023-03-23T17:27:41;68.00;;;55.00;;
39082;SDS011;24834;44.444;26.098;2023-03-23T17:33:43;64.00;;;52.75;;
39082;SDS011;24834;44.444;26.098;2023-03-23T17:39:46;71.25;;;56.00;;
39082;SDS011;24834;44.444;26.098;2023-03-23T17:45:48;62.75;;;51.25;;
39082;SDS011;24834;44.444;26.098;2023-03-23T17:51:51;65.25;;;50.75;;
39082;SDS011;24834;44.444;26.098;2023-03-23T17:57:55;61.25;;;50.50;;
39082;SDS011;24834;44.444;26.098;2023-03-23T18:03:58;64.50;;;52.00;;
39082;SDS011;24834;44.444;26.098;2023-03-23T18:10:00;64.50;;;51.00;;
39082;SDS011;24834;44.444;26.098;2023-03-23T18:16:06;60.50;;;50.00;;
39082;SDS011;24834;44.444;26.098;2023-03-23T18:22:11;65.00;;;53.25;;
39082;SDS011;24834;44.444;26.098;2023-03-23T18:28:15;63.50;;;50.25;;
39082;SDS011;24834;44.444;26.098;2023-03-23T18:34:18;60.25;;;52.00;;
39082;SDS011;24834;44.444;26.098;2023-03-23T18:40:22;62.33;;;51.00;;
39082;SDS011;24834;44.444;26.098;2023-03-23T18:46:26;61.25;;;51.00;;
39082;SDS011;24834;44.444;26.098;2023-03-23T18:52:29;58.00;;;50.25;;
39082;SDS011;24834;44.444;26.098;2023-03-23T18:58:32;65.25;;;53.50;;
39082;SDS011;24834;44.444;26.098;2023-03-23T19:04:36;65.50;;;53.00;;
39082;SDS011;24834;44.444;26.098;2023-03-23T19:10:39;65.75;;;54.00;;
39082;SDS011;24834;44.444;26.098;2023-03-23T19:16:43;67.00;;;53.75;;
39082;SDS011;24834;44.444;26.098;2023-03-23T19:22:46;69.25;;;56.50;;
39082;SDS011;24834;44.444;26.098;2023-03-23T19:28:53;70.75;;;56.50;;
39082;SDS011;24834;44.444;26.098;2023-03-23T19:35:16;68.25;;;54.00;;
39082;SDS011;24834;44.444;26.098;2023-03-23T19:41:22;61.75;;;52.00;;
39082;SDS011;24834;44.444;26.098;2023-03-23T19:47:25;64.25;;;52.75;;
39082;SDS011;24834;44.444;26.098;2023-03-23T19:53:28;64.00;;;51.75;;
39082;SDS011;24834;44.444;26.098;2023-03-23T19:59:34;66.50;;;52.25;;
39082;SDS011;24834;44.444;26.098;2023-03-23T20:05:38;66.50;;;53.50;;
39082;SDS011;24834;44.444;26.098;2023-03-23T20:11:45;67.25;;;55.00;;
39082;SDS011;24834;44.444;26.098;2023-03-23T20:17:47;66.50;;;54.00;;
39082;SDS011;24834;44.444;26.098;2023-03-23T20:23:55;67.25;;;55.50;;
39082;SDS011;24834;44.444;26.098;2023-03-23T20:29:59;69.50;;;54.50;;
39082;SDS011;24834;44.444;26.098;2023-03-23T20:36:03;64.75;;;52.75;;
39082;SDS011;24834;44.444;26.098;2023-03-23T20:42:05;66.00;;;53.00;;
39082;SDS011;24834;44.444;26.098;2023-03-23T20:48:08;62.00;;;51.75;;
39082;SDS011;24834;44.444;26.098;2023-03-23T20:54:14;61.25;;;50.00;;
39082;SDS011;24834;44.444;26.098;2023-03-23T21:00:17;63.75;;;50.75;;
39082;SDS011;24834;44.444;26.098;2023-03-23T21:06:20;63.00;;;48.50;;
39082;SDS011;24834;44.444;26.098;2023-03-23T21:12:22;65.50;;;53.75;;
39082;SDS011;24834;44.444;26.098;2023-03-23T21:18:24;66.75;;;52.50;;
39082;SDS011;24834;44.444;26.098;2023-03-23T21:24:29;61.00;;;50.00;;
39082;SDS011;24834;44.444;26.098;2023-03-23T21:30:36;62.25;;;50.00;;
39082;SDS011;24834;44.444;26.098;2023-03-23T21:36:38;62.25;;;49.50;;
39082;SDS011;24834;44.444;26.098;2023-03-23T21:42:41;62.50;;;51.50;;
39082;SDS011;24834;44.444;26.098;2023-03-23T21:48:46;59.00;;;49.00;;
39082;SDS011;24834;44.444;26.098;2023-03-23T21:54:55;52.50;;;43.50;;
39082;SDS011;24834;44.444;26.098;2023-03-23T22:01:02;60.50;;;50.00;;
39082;SDS011;24834;44.444;26.098;2023-03-23T22:07:06;62.00;;;51.00;;
39082;SDS011;24834;44.444;26.098;2023-03-23T22:13:09;67.00;;;51.50;;
39082;SDS011;24834;44.444;26.098;2023-03-23T22:19:13;60.75;;;50.50;;
39082;SDS011;24834;44.444;26.098;2023-03-23T22:25:17;66.25;;;53.50;;
39082;SDS011;24834;44.444;26.098;2023-03-23T22:31:21;60.25;;;50.75;;
39082;SDS011;24834;44.444;26.098;2023-03-23T22:37:26;67.75;;;52.50;;
39082;SDS011;24834;44.444;26.098;2023-03-23T22:43:28;66.75;;;53.75;;
39082;SDS011;24834;44.444;26.098;2023-03-23T22:49:33;63.00;;;50.00;;
39082;SDS011;24834;44.444;26.098;2023-03-23T22:55:39;63.00;;;52.25;;
39082;SDS011;24834;44.444;26.098;2023-03-23T23:01:47;63.75;;;50.00;;
39082;SDS011;24834;44.444;26.098;2023-03-23T23:07:50;61.00;;;49.50;;
39082;SDS011;24834;44.444;26.098;2023-03-23T23:13:52;58.75;;;49.50;;
39082;SDS011;24834;44.444;26.098;2023-03-23T23:19:57;51.50;;;44.75;;
39082;SDS011;24834;44.444;26.098;2023-03-23T23:26:00;64.00;;;49.00;;
39082;SDS011;24834;44.444;26.098;2023-03-23T23:32:03;58.50;;;48.75;;
39082;SDS011;24834;44.444;26.098;2023-03-23T23:38:06;58.50;;;46.50;;
39082;SDS011;24834;44.444;26.098;2023-03-23T23:44:11;49.50;;;43.50;;
39082;SDS011;24834;44.444;26.098;2023-03-23T23:50:14;59.25;;;46.75;;
39082;SDS011;24834;44.444;26.098;2023-03-23T23:56:18;52.50;;;44.25;;
